Tropical Cyclones
[Index]
Main Index Home Page Stock Weather Photos Extreme Storms Discussion Storm News and Storm Chasing Reports Tropical Cyclones / Hurricanes / Typhoons Weather Data and Links Wild Fires / Bushfires Weather Observation Techniques Weather Picture Catalogue Tornado Pictures and Reports Stock Video Footage and DVDs for sale
Season 1999-2000 Tropical Cyclone LEON Track Map
Season 1999-2000 Summaries: [BoM-AU] [JTWC-AU] [JTWC-SIO] [JTWC-SPAC] [JTWC-SH]
<<- Previous TC | BoM 1999-2000 Season | Next TC ->>

click for intensity scale information  Lat/long Grid: Show Hide

 Date Labels: Show Hide

Bureau of Meteorology Tropical Cyclone Data

Name: LEON
Number: 833 / 199900_04

01 Feb 2000 04:00 UTC to 08 Feb 2000 22:00 UTC

    date/time    lat    long    hPa   cat  kts
2000-02-01 04   10.5   115.5   1000         27          
2000-02-01 10   10.5   114.7   1000         27          
2000-02-01 16   10.5   113.9   1000         27          
2000-02-01 22   10.5   113.2   1000         27          
2000-02-02 04   10.5   112.5   1000         27          
2000-02-02 10   10.6   111.8   1000         27          
2000-02-02 16   10.8   111.2   1000         27          
2000-02-02 22   11.0   110.5   1000         27          
2000-02-03 04   11.2   109.9   1000         27          
2000-02-03 10   11.5   109.2   1000         27          
2000-02-03 16   11.8   108.1   1000         27          
2000-02-03 22   12.2   107.0    995    1    35          
2000-02-04 04   12.5   106.2    990    1    41          
2000-02-04 10   12.8   105.3    985    2    49          
2000-02-04 16   13.2   104.6    985    2    49          
2000-02-04 22   13.7   104.1    980    2    54          
2000-02-05 04   14.1   103.6    975    2    60          
2000-02-05 10   14.6   103.0    970    3    64          
2000-02-05 16   15.1   102.2    965    3    70          
2000-02-05 22   15.7   101.3    960    3    76          
2000-02-06 04   16.1   100.5    960    3    76          
2000-02-06 10   16.8    99.6    960    3    76          
2000-02-06 16   16.8    98.9    960    3    76          
2000-02-06 22   16.8    98.2    965    3    70          
2000-02-07 04   16.9    97.3    970    3    64          
2000-02-07 10   17.0    96.0    980    2    54          
2000-02-07 16   17.3    94.5    985    2    49          
2000-02-07 22   17.6    93.2    990    1    41          
2000-02-08 04   17.6    92.1    990    1    41          
2000-02-08 10   17.7    91.0    990    1    41          
2000-02-08 16   17.7    90.0    990    1    41          
2000-02-08 22   17.7    89.0    990    1    41          
Winds are 10-min average.

Tropical cyclone tracks developed by Michael Bath using data from the Bureau of Meteorology and Google Maps.


[Australian Severe Weather index] [Copyright Notice] [Email Contacts] [Search This Site] [Privacy Policy]
Document: tropical_cyclone_leon.htm Updated: 30 May 2013